Agar, South Dakota
Current Conditions -  °F | °C
As of 5:53 AM on Monday 26 Jan 2015 (Local Time) from KPIR Reporting Station
Clear Clear  
Wind Chill: -1°   Ceiling: Unl
Heat Index:   Visibility: 10mi
Dew Point:   Wind: 13mph
Humidity: 83%   Direction: 270°W
Pressure: 29.89"   Gusts: NA
Location:  44.84°N, 100.07°W
Report Text: KPIR 261153Z AUTO 27011KT 10SM CLR 03/01 A2989 RMK AO2 SLP132 T00330006 10039 20000 53010
Loading
Personal Weather Stations






























Interactive Weather Map New forecast layout! Learn more

10-Day Weather Forecast

Advertisements
Track Severe Weather on mobile